Time;durP1;ratioP1;P1;durP2;ratioP2;P2;SDS_P1;SDS_P2;PMS_P1;PMS_P2;Temp;Humidity;BMP_temperature;BMP_pressure;BME280_temperature;BME280_humidity;BME280_pressure;Samples;Min_cycle;Max_cycle;Signal;HPM_P1;HPM_P2
2023/12/09 00:02:25;;;;;;;11.33;3.10;;;8.60;99.90;;;;;;5053523;28;20449;-61
2023/12/09 00:04:53;;;;;;;13.37;2.90;;;8.60;99.90;;;;;;5057485;28;20422;-61
2023/12/09 00:07:20;;;;;;;13.33;3.60;;;8.60;99.90;;;;;;5057005;28;20458;-61
2023/12/09 00:09:47;;;;;;;9.67;2.60;;;8.70;99.90;;;;;;5057125;28;20877;-61
2023/12/09 00:12:14;;;;;;;11.30;3.00;;;8.70;99.90;;;;;;5057189;28;20444;-61
2023/12/09 00:14:40;;;;;;;12.10;3.27;;;8.70;99.90;;;;;;5057170;28;20492;-61
2023/12/09 00:17:07;;;;;;;15.80;2.83;;;8.70;99.90;;;;;;5056904;28;20477;-61
2023/12/09 00:19:34;;;;;;;10.23;3.10;;;8.70;99.90;;;;;;5056893;28;20598;-62
2023/12/09 00:22:02;;;;;;;12.60;2.67;;;8.80;99.90;;;;;;5056706;28;20441;-61
2023/12/09 00:24:29;;;;;;;14.97;3.20;;;8.80;99.90;;;;;;5057643;28;20484;-61
2023/12/09 00:26:56;;;;;;;10.80;2.47;;;8.80;99.90;;;;;;5056617;28;20449;-61
2023/12/09 00:29:23;;;;;;;13.60;3.60;;;8.80;99.90;;;;;;5056615;28;20452;-61
2023/12/09 00:31:49;;;;;;;21.63;3.30;;;8.70;99.90;;;;;;5056951;28;20498;-61
2023/12/09 00:34:16;;;;;;;15.33;2.60;;;8.70;99.90;;;;;;5056526;28;20453;-61
2023/12/09 00:36:43;;;;;;;12.53;2.60;;;8.70;99.90;;;;;;5056691;28;20485;-61
2023/12/09 00:39:11;;;;;;;9.20;3.30;;;8.70;99.90;;;;;;5056148;28;20452;-62
2023/12/09 00:41:37;;;;;;;9.90;3.07;;;8.70;99.90;;;;;;5056443;28;20446;-61
2023/12/09 00:44:04;;;;;;;9.07;2.63;;;8.70;99.90;;;;;;5056525;28;20452;-61
2023/12/09 00:46:31;;;;;;;12.23;3.13;;;8.70;99.90;;;;;;5056529;28;20473;-61
2023/12/09 00:48:58;;;;;;;11.27;2.87;;;8.70;99.90;;;;;;5056439;28;20441;-61
2023/12/09 00:51:24;;;;;;;17.40;3.57;;;8.60;99.90;;;;;;5056347;28;20484;-62
2023/12/09 00:53:51;;;;;;;8.57;2.73;;;8.70;99.90;;;;;;5056365;28;20445;-62
2023/12/09 00:56:19;;;;;;;11.43;3.00;;;8.70;99.90;;;;;;5056267;28;20481;-61
2023/12/09 00:58:45;;;;;;;11.60;3.33;;;8.70;99.90;;;;;;5055770;28;20950;-62
2023/12/09 01:01:13;;;;;;;9.70;2.63;;;8.60;99.90;;;;;;5055325;28;20880;-62
2023/12/09 01:03:40;;;;;;;5.53;2.60;;;8.70;99.90;;;;;;5055871;28;20461;-62
2023/12/09 01:06:06;;;;;;;16.60;3.50;;;8.70;99.90;;;;;;5056051;28;20449;-62
2023/12/09 01:08:33;;;;;;;11.60;3.63;;;8.70;99.90;;;;;;5056168;28;20452;-62
2023/12/09 01:11:00;;;;;;;15.73;3.00;;;8.70;99.90;;;;;;5055940;28;20544;-62
2023/12/09 01:13:30;;;;;;;13.80;3.30;;;8.70;99.90;;;;;;5055797;28;20452;-62
2023/12/09 01:15:56;;;;;;;12.37;4.13;;;8.80;99.90;;;;;;5055569;28;20481;-62
2023/12/09 01:18:23;;;;;;;14.00;3.90;;;8.80;99.90;;;;;;5055802;28;20449;-62
2023/12/09 01:20:50;;;;;;;12.47;2.90;;;8.80;99.90;;;;;;5055900;28;20478;-62
2023/12/09 01:23:16;;;;;;;14.93;3.10;;;8.80;99.90;;;;;;5055715;28;20450;-62
2023/12/09 01:25:43;;;;;;;16.97;2.93;;;8.80;99.90;;;;;;5055872;28;20852;-62
2023/12/09 01:28:10;;;;;;;14.57;4.00;;;8.80;99.90;;;;;;5055587;28;20453;-62
2023/12/09 01:30:38;;;;;;;12.37;3.33;;;8.90;99.90;;;;;;5055528;28;20474;-62
2023/12/09 01:33:04;;;;;;;14.27;2.93;;;8.80;99.90;;;;;;5055603;28;20458;-62
2023/12/09 01:35:31;;;;;;;11.00;3.60;;;8.90;99.90;;;;;;5055583;28;20444;-62
2023/12/09 01:37:58;;;;;;;8.87;3.30;;;8.90;99.90;;;;;;5055255;28;20492;-62
2023/12/09 01:40:24;;;;;;;13.83;5.07;;;8.90;99.90;;;;;;5054979;28;20998;-62
2023/12/09 01:42:51;;;;;;;12.47;3.07;;;8.80;99.90;;;;;;5055440;28;20449;-62
2023/12/09 01:45:18;;;;;;;9.93;2.67;;;8.80;99.90;;;;;;5055314;28;20438;-62
2023/12/09 01:47:46;;;;;;;13.90;3.70;;;8.80;99.90;;;;;;5054923;28;20453;-62
2023/12/09 01:50:13;;;;;;;7.73;3.10;;;8.80;99.90;;;;;;5055195;28;20560;-62
2023/12/09 01:52:40;;;;;;;15.27;4.30;;;8.80;99.90;;;;;;5055210;28;20464;-62
2023/12/09 01:55:08;;;;;;;11.87;3.50;;;8.80;99.90;;;;;;5055207;28;20515;-62
2023/12/09 01:57:36;;;;;;;9.07;2.90;;;8.80;99.90;;;;;;5054577;28;20473;-61
2023/12/09 02:00:04;;;;;;;12.50;2.97;;;8.70;99.90;;;;;;5055076;28;20466;-62
2023/12/09 02:02:30;;;;;;;16.73;4.10;;;8.70;99.90;;;;;;5055090;28;20974;-62
2023/12/09 02:05:00;;;;;;;14.30;3.47;;;8.70;99.90;;;;;;5055009;28;20851;-62
2023/12/09 02:07:26;;;;;;;6.90;2.53;;;8.70;99.90;;;;;;5054817;28;20442;-62
2023/12/09 02:09:53;;;;;;;13.63;3.20;;;8.60;99.90;;;;;;5054770;28;20469;-62
2023/12/09 02:12:36;;;;;;;10.00;3.40;;;8.60;99.90;;;;;;5054971;28;20450;-62
2023/12/09 02:15:07;;;;;;;10.63;3.60;;;8.60;99.90;;;;;;5054827;28;20853;-61
2023/12/09 02:17:41;;;;;;;9.83;3.10;;;8.60;99.90;;;;;;5054849;28;20458;-62
2023/12/09 02:20:11;;;;;;;11.07;3.80;;;8.60;99.90;;;;;;5054266;28;21011;-62
2023/12/09 02:22:38;;;;;;;10.13;3.47;;;8.60;99.90;;;;;;5054735;28;20505;-62
2023/12/09 02:25:07;;;;;;;15.03;3.10;;;8.60;99.90;;;;;;5053969;28;20525;-62
2023/12/09 02:27:39;;;;;;;15.27;3.43;;;8.60;99.90;;;;;;5054650;28;20449;-61
2023/12/09 02:30:13;;;;;;;6.80;2.80;;;8.60;99.90;;;;;;5054588;28;20479;-62
2023/12/09 02:32:42;;;;;;;7.40;3.67;;;8.60;99.90;;;;;;5054421;28;20425;-62
2023/12/09 02:35:11;;;;;;;11.10;3.40;;;8.60;99.90;;;;;;5054543;28;20445;-62
2023/12/09 02:37:39;;;;;;;5.47;3.10;;;8.60;99.90;;;;;;5054268;28;20478;-62
2023/12/09 02:40:09;;;;;;;9.63;3.07;;;8.60;99.90;;;;;;5054163;28;20470;-62
2023/12/09 02:42:37;;;;;;;11.00;3.27;;;8.60;99.90;;;;;;5055129;28;20466;-62
2023/12/09 02:45:05;;;;;;;9.40;2.93;;;8.60;99.90;;;;;;5054594;28;20848;-62
2023/12/09 02:47:32;;;;;;;9.93;2.93;;;8.60;99.90;;;;;;5054323;28;20446;-62
2023/12/09 02:49:59;;;;;;;17.07;3.47;;;8.60;99.90;;;;;;5054159;28;20472;-62
2023/12/09 02:52:25;;;;;;;11.33;3.30;;;8.60;99.90;;;;;;5054148;28;20943;-62
2023/12/09 02:54:52;;;;;;;7.40;3.93;;;8.60;99.90;;;;;;5054473;28;20438;-62
2023/12/09 02:57:20;;;;;;;9.13;3.23;;;8.60;99.90;;;;;;5054470;28;20474;-62
2023/12/09 02:59:47;;;;;;;9.07;2.90;;;8.50;99.90;;;;;;5055330;28;20485;-62
2023/12/09 03:02:14;;;;;;;10.90;3.33;;;8.50;99.90;;;;;;5053668;28;20916;-62
2023/12/09 03:04:40;;;;;;;10.87;4.50;;;8.40;99.90;;;;;;5053664;28;20422;-62
2023/12/09 03:07:07;;;;;;;13.80;3.73;;;8.40;99.90;;;;;;5053511;28;20441;-62
2023/12/09 03:09:34;;;;;;;13.30;3.80;;;8.40;99.90;;;;;;5053424;28;20848;-61
2023/12/09 03:12:00;;;;;;;16.40;4.77;;;8.40;99.90;;;;;;5053419;28;20940;-61
2023/12/09 03:14:28;;;;;;;8.90;3.53;;;8.40;99.90;;;;;;5053388;28;20927;-62
2023/12/09 03:16:55;;;;;;;14.90;3.77;;;8.30;99.90;;;;;;5053524;28;20583;-62
2023/12/09 03:19:22;;;;;;;13.93;3.60;;;8.30;99.90;;;;;;5053398;28;20449;-62
2023/12/09 03:21:48;;;;;;;10.03;3.20;;;8.20;99.90;;;;;;5053537;28;20445;-62
2023/12/09 03:24:15;;;;;;;11.00;3.20;;;8.20;99.90;;;;;;5053480;28;20445;-62
2023/12/09 03:26:42;;;;;;;12.50;4.23;;;8.20;99.90;;;;;;5053468;28;20504;-62
2023/12/09 03:29:08;;;;;;;11.90;3.60;;;8.20;99.90;;;;;;5053470;28;20472;-62
2023/12/09 03:31:40;;;;;;;8.67;3.57;;;8.20;99.90;;;;;;5053380;28;20450;-62
2023/12/09 03:34:07;;;;;;;9.83;3.50;;;8.10;99.90;;;;;;5053418;28;20461;-62
2023/12/09 03:36:34;;;;;;;13.67;3.90;;;8.10;99.90;;;;;;5052280;28;20982;-62
2023/12/09 03:39:01;;;;;;;9.20;3.87;;;8.10;99.90;;;;;;5052874;28;20448;-62
2023/12/09 03:41:27;;;;;;;9.00;3.00;;;8.10;99.90;;;;;;5053224;28;20474;-62
2023/12/09 03:43:54;;;;;;;11.00;3.50;;;8.20;99.90;;;;;;5052932;28;20441;-62
2023/12/09 03:46:21;;;;;;;10.47;3.53;;;8.10;99.90;;;;;;5052868;28;20445;-62
2023/12/09 03:48:49;;;;;;;17.10;5.07;;;8.20;99.90;;;;;;5052928;28;20928;-62
2023/12/09 03:51:15;;;;;;;13.43;2.90;;;8.10;99.90;;;;;;5053133;28;20462;-62
2023/12/09 03:53:42;;;;;;;12.73;3.40;;;8.20;99.90;;;;;;5052990;28;20824;-61
2023/12/09 03:56:11;;;;;;;11.80;3.10;;;8.20;99.90;;;;;;5052731;28;20944;-61
2023/12/09 03:58:38;;;;;;;13.10;3.37;;;8.20;99.90;;;;;;5053216;28;20516;-61
2023/12/09 04:01:05;;;;;;;11.00;3.80;;;8.10;99.90;;;;;;5053097;28;20468;-62
2023/12/09 04:03:31;;;;;;;8.40;3.00;;;8.10;99.90;;;;;;5053422;28;20883;-62
2023/12/09 04:05:59;;;;;;;11.87;3.63;;;8.10;99.90;;;;;;5053521;28;20452;-62
2023/12/09 04:08:26;;;;;;;12.83;4.07;;;8.00;99.90;;;;;;5052795;28;21001;-62
2023/12/09 04:10:53;;;;;;;11.70;4.87;;;8.00;99.90;;;;;;5053173;28;20499;-61
2023/12/09 04:13:20;;;;;;;10.57;3.83;;;8.00;99.90;;;;;;5052983;28;20499;-62
2023/12/09 04:15:47;;;;;;;9.30;3.40;;;8.00;99.90;;;;;;5052835;28;20962;-62
2023/12/09 04:18:13;;;;;;;9.93;2.90;;;8.00;99.90;;;;;;5052687;28;20470;-62
2023/12/09 04:20:40;;;;;;;14.20;3.30;;;8.00;99.90;;;;;;5052940;28;20480;-61
2023/12/09 04:23:08;;;;;;;11.37;3.80;;;8.00;99.90;;;;;;5052952;28;20446;-61
2023/12/09 04:25:35;;;;;;;9.10;2.93;;;8.00;99.90;;;;;;5053005;28;20441;-61
2023/12/09 04:28:02;;;;;;;7.77;3.37;;;8.10;99.90;;;;;;5052622;28;20540;-61
2023/12/09 04:30:29;;;;;;;10.07;4.47;;;8.00;99.90;;;;;;5052787;28;20469;-61
2023/12/09 04:32:55;;;;;;;11.03;3.10;;;8.00;99.90;;;;;;5052719;28;20480;-61
2023/12/09 04:35:22;;;;;;;13.63;4.03;;;8.00;99.90;;;;;;5052522;28;20935;-61
2023/12/09 04:37:49;;;;;;;7.43;3.30;;;7.90;99.90;;;;;;5052793;28;20481;-61
2023/12/09 04:40:17;;;;;;;5.83;3.30;;;7.90;99.90;;;;;;5052710;28;20469;-61
2023/12/09 04:42:44;;;;;;;14.20;3.80;;;7.80;99.90;;;;;;5052821;28;20507;-61
2023/12/09 04:45:11;;;;;;;8.37;3.60;;;7.80;99.90;;;;;;5052633;28;20525;-61
2023/12/09 04:47:38;;;;;;;7.53;3.37;;;7.70;99.90;;;;;;5052776;28;20437;-61
2023/12/09 04:50:08;;;;;;;10.73;3.23;;;7.70;99.90;;;;;;5055462;28;20855;-61
2023/12/09 04:52:34;;;;;;;9.87;3.17;;;7.60;99.90;;;;;;5056165;28;20453;-61
2023/12/09 04:55:01;;;;;;;13.90;4.03;;;7.60;99.90;;;;;;5056308;28;20456;-61
2023/12/09 04:57:29;;;;;;;12.23;3.50;;;7.70;99.90;;;;;;5056128;28;20492;-61
2023/12/09 04:59:56;;;;;;;8.23;3.60;;;7.60;99.90;;;;;;5056142;28;20469;-61
2023/12/09 05:02:22;;;;;;;4.83;2.60;;;7.60;99.90;;;;;;5056396;28;20445;-61
2023/12/09 05:04:49;;;;;;;7.60;3.10;;;7.60;99.90;;;;;;5055923;28;20437;-61
2023/12/09 05:07:17;;;;;;;6.00;3.00;;;7.50;99.90;;;;;;5056182;28;20461;-61
2023/12/09 05:09:44;;;;;;;10.60;3.43;;;7.50;99.90;;;;;;5055943;28;20469;-61
2023/12/09 05:12:10;;;;;;;8.10;3.83;;;7.40;99.90;;;;;;5055614;28;20453;-61
2023/12/09 05:14:38;;;;;;;13.33;3.60;;;7.40;99.90;;;;;;5055616;28;20441;-60
2023/12/09 05:17:05;;;;;;;7.33;3.07;;;7.50;99.90;;;;;;5056641;28;20430;-61
2023/12/09 05:19:32;;;;;;;10.43;2.90;;;7.50;99.90;;;;;;5055494;28;21021;-61
2023/12/09 05:21:59;;;;;;;9.53;3.50;;;7.50;99.90;;;;;;5055785;28;20452;-61
2023/12/09 05:24:26;;;;;;;10.87;2.97;;;7.50;99.90;;;;;;5055774;28;20446;-61
2023/12/09 05:26:53;;;;;;;12.20;3.70;;;7.50;99.90;;;;;;5055331;28;20970;-61
2023/12/09 05:29:20;;;;;;;8.00;2.63;;;7.50;99.90;;;;;;5055523;28;20442;-61
2023/12/09 05:31:48;;;;;;;9.77;3.17;;;7.50;99.90;;;;;;5055587;28;20500;-61
2023/12/09 05:34:14;;;;;;;6.33;3.00;;;7.50;99.90;;;;;;5055466;28;20469;-61
2023/12/09 05:36:41;;;;;;;5.70;2.83;;;7.50;99.90;;;;;;5055616;28;20454;-62
2023/12/09 05:39:08;;;;;;;10.00;3.80;;;7.50;99.90;;;;;;5055417;28;20484;-62
2023/12/09 05:41:34;;;;;;;8.90;3.43;;;7.50;99.90;;;;;;5055485;28;20528;-61
2023/12/09 05:44:01;;;;;;;7.40;2.93;;;7.50;99.90;;;;;;5055362;28;20453;-62
2023/12/09 05:46:28;;;;;;;11.43;2.70;;;7.50;99.90;;;;;;5055424;28;20442;-62
2023/12/09 05:48:56;;;;;;;8.43;2.57;;;7.50;99.90;;;;;;5054982;28;20939;-61
2023/12/09 05:51:22;;;;;;;7.03;2.20;;;7.50;99.90;;;;;;5054969;28;21010;-61
2023/12/09 05:53:49;;;;;;;7.40;2.43;;;7.50;99.90;;;;;;5055162;28;20446;-61
2023/12/09 05:56:16;;;;;;;8.37;2.10;;;7.50;99.90;;;;;;5055150;28;20437;-61
2023/12/09 05:58:42;;;;;;;4.00;1.90;;;7.50;99.90;;;;;;5054801;28;21003;-61
2023/12/09 06:01:10;;;;;;;4.00;2.47;;;7.50;99.90;;;;;;5054337;28;20485;-61
2023/12/09 06:03:36;;;;;;;6.40;2.27;;;7.50;99.90;;;;;;5054561;28;20461;-61
2023/12/09 06:06:05;;;;;;;5.23;1.93;;;7.50;99.90;;;;;;5055001;28;20441;-61
2023/12/09 06:08:32;;;;;;;5.03;2.13;;;7.40;99.90;;;;;;5054853;28;20473;-61
2023/12/09 06:10:59;;;;;;;10.23;3.00;;;7.40;99.90;;;;;;5054884;28;20484;-62
2023/12/09 06:13:26;;;;;;;6.43;2.20;;;7.50;99.90;;;;;;5054475;28;20441;-61
2023/12/09 06:15:52;;;;;;;5.17;2.87;;;7.50;99.90;;;;;;5054719;28;20453;-62
2023/12/09 06:18:19;;;;;;;7.30;2.23;;;7.50;99.90;;;;;;5054725;28;20484;-61
2023/12/09 06:20:46;;;;;;;3.60;1.93;;;7.50;99.90;;;;;;5054621;28;20468;-62
2023/12/09 06:23:14;;;;;;;5.40;2.37;;;7.50;99.90;;;;;;5054637;28;20441;-61
2023/12/09 06:25:40;;;;;;;3.03;2.17;;;7.50;99.90;;;;;;5054612;28;20441;-61
2023/12/09 06:28:07;;;;;;;6.13;2.50;;;7.40;99.90;;;;;;5054646;28;20446;-62
2023/12/09 06:30:34;;;;;;;7.63;2.27;;;7.40;99.90;;;;;;5054450;28;20491;-61
2023/12/09 06:33:00;;;;;;;5.30;2.40;;;7.40;99.90;;;;;;5054490;28;20472;-61
2023/12/09 06:35:27;;;;;;;6.20;2.60;;;7.40;99.90;;;;;;5054405;28;20438;-61
2023/12/09 06:37:54;;;;;;;9.07;2.57;;;7.40;99.90;;;;;;5054287;28;20504;-61
2023/12/09 06:40:23;;;;;;;5.23;2.80;;;7.40;99.90;;;;;;5054277;28;20497;-61
2023/12/09 06:42:50;;;;;;;5.60;2.43;;;7.40;99.90;;;;;;5054276;28;20438;-61
2023/12/09 06:45:16;;;;;;;3.53;2.03;;;7.40;99.90;;;;;;5054277;28;20437;-61
2023/12/09 06:47:43;;;;;;;8.33;2.27;;;7.30;99.90;;;;;;5054316;28;20437;-61
2023/12/09 06:50:11;;;;;;;5.30;2.00;;;7.30;99.90;;;;;;5054078;28;20497;-61
2023/12/09 06:52:37;;;;;;;3.23;2.43;;;7.30;99.90;;;;;;5054304;28;20454;-61
2023/12/09 06:55:05;;;;;;;5.23;2.30;;;7.30;99.90;;;;;;5054014;28;20438;-61
2023/12/09 06:57:33;;;;;;;3.20;2.20;;;7.30;99.90;;;;;;5053644;28;20949;-61
2023/12/09 07:00:00;;;;;;;5.07;2.70;;;7.30;99.90;;;;;;5053879;28;20458;-61
2023/12/09 07:02:26;;;;;;;7.30;2.57;;;7.30;99.90;;;;;;5053889;28;20449;-61
2023/12/09 07:04:53;;;;;;;5.27;2.03;;;7.30;99.90;;;;;;5053962;28;20532;-61
2023/12/09 07:07:20;;;;;;;6.90;2.33;;;7.30;99.90;;;;;;5053906;28;20444;-61
2023/12/09 07:09:46;;;;;;;7.00;3.00;;;7.40;99.90;;;;;;5054584;28;20476;-61
2023/12/09 07:12:13;;;;;;;3.97;2.70;;;7.30;99.90;;;;;;5053264;28;20452;-61
2023/12/09 07:14:41;;;;;;;4.57;3.00;;;7.30;99.90;;;;;;5053672;28;20455;-61
2023/12/09 07:17:08;;;;;;;13.37;3.10;;;7.40;99.90;;;;;;5053785;28;20442;-61
2023/12/09 07:19:34;;;;;;;6.53;2.40;;;7.40;99.90;;;;;;5053614;28;20488;-61
2023/12/09 07:22:03;;;;;;;7.63;3.27;;;7.40;99.90;;;;;;5053427;28;20936;-61
2023/12/09 07:24:30;;;;;;;8.40;3.40;;;7.40;99.90;;;;;;5053984;28;20449;-61
2023/12/09 07:26:56;;;;;;;4.37;2.20;;;7.40;99.90;;;;;;5053732;28;20445;-61
2023/12/09 07:29:24;;;;;;;6.47;2.60;;;7.40;99.90;;;;;;5053709;28;20446;-61
2023/12/09 07:31:53;;;;;;;6.47;2.87;;;7.40;99.90;;;;;;5053538;28;21014;-61
2023/12/09 07:34:20;;;;;;;6.20;2.40;;;7.40;99.90;;;;;;5053727;28;20449;-61
2023/12/09 07:36:47;;;;;;;4.73;2.30;;;7.40;99.90;;;;;;5053573;28;20445;-61
2023/12/09 07:39:13;;;;;;;4.67;2.53;;;7.40;99.90;;;;;;5053403;28;20516;-61
2023/12/09 07:41:41;;;;;;;4.23;2.30;;;7.30;99.90;;;;;;5053621;28;20449;-61
2023/12/09 07:44:08;;;;;;;5.57;2.23;;;7.30;99.90;;;;;;5053696;28;20441;-61
2023/12/09 07:46:34;;;;;;;5.93;2.47;;;7.30;99.90;;;;;;5053325;28;20441;-61
2023/12/09 07:49:03;;;;;;;4.07;2.30;;;7.30;99.90;;;;;;5053307;28;20441;-61
2023/12/09 07:51:29;;;;;;;7.67;3.10;;;7.40;99.90;;;;;;5053214;28;20465;-61
2023/12/09 07:53:56;;;;;;;4.73;2.60;;;7.40;99.90;;;;;;5053189;28;20437;-61
2023/12/09 07:56:23;;;;;;;8.80;2.57;;;7.40;99.90;;;;;;5053253;28;20437;-61
2023/12/09 07:58:49;;;;;;;7.83;2.33;;;7.40;99.90;;;;;;5053094;28;20513;-61
2023/12/09 08:01:16;;;;;;;8.17;3.07;;;7.40;99.90;;;;;;5053188;28;20503;-61
2023/12/09 08:03:43;;;;;;;13.33;2.77;;;7.50;99.90;;;;;;5052871;28;20812;-61
2023/12/09 08:06:11;;;;;;;4.90;2.27;;;7.40;99.90;;;;;;5053143;28;20480;-61
2023/12/09 08:08:38;;;;;;;4.53;2.47;;;7.50;99.90;;;;;;5052847;28;20973;-61
2023/12/09 08:11:05;;;;;;;12.23;2.73;;;7.50;99.90;;;;;;5052944;28;20462;-61
2023/12/09 08:13:32;;;;;;;6.03;3.00;;;7.50;99.90;;;;;;5053326;28;20815;-61
2023/12/09 08:15:59;;;;;;;4.57;2.90;;;7.50;99.90;;;;;;5053109;28;20446;-61
2023/12/09 08:18:26;;;;;;;7.03;3.00;;;7.60;99.90;;;;;;5052927;28;20481;-61
2023/12/09 08:20:53;;;;;;;6.30;4.00;;;7.70;99.90;;;;;;5053015;28;20496;-61
2023/12/09 08:23:21;;;;;;;6.40;2.43;;;7.70;99.90;;;;;;5053359;28;20438;-60
2023/12/09 08:25:47;;;;;;;8.17;2.30;;;7.80;99.90;;;;;;5056946;28;20437;-61
2023/12/09 08:28:14;;;;;;;6.50;3.10;;;7.80;99.90;;;;;;5056835;28;20449;-61
2023/12/09 08:30:41;;;;;;;10.50;3.97;;;7.80;99.90;;;;;;5056766;28;20457;-61
2023/12/09 08:33:07;;;;;;;11.17;3.30;;;7.90;99.90;;;;;;5056590;28;20493;-61
2023/12/09 08:35:34;;;;;;;7.30;3.07;;;7.80;99.90;;;;;;5056590;28;20441;-61
2023/12/09 08:38:01;;;;;;;5.20;3.23;;;7.90;99.90;;;;;;5056613;28;20447;-61
2023/12/09 08:40:29;;;;;;;5.17;3.00;;;8.00;99.90;;;;;;5056670;28;20465;-61
2023/12/09 08:42:56;;;;;;;10.80;3.53;;;8.10;99.90;;;;;;5056682;28;20471;-61
2023/12/09 08:45:22;;;;;;;8.67;2.97;;;8.10;99.90;;;;;;5056220;28;20958;-61
2023/12/09 08:47:49;;;;;;;6.03;2.70;;;8.10;99.90;;;;;;5056186;28;21009;-61
2023/12/09 08:50:16;;;;;;;6.70;3.03;;;8.20;99.90;;;;;;5056354;28;20465;-61
2023/12/09 08:52:42;;;;;;;9.00;3.20;;;8.20;99.90;;;;;;5056066;28;20954;-61
2023/12/09 08:55:10;;;;;;;12.73;3.10;;;8.20;99.90;;;;;;5055944;28;20816;-61
2023/12/09 08:57:38;;;;;;;8.83;3.17;;;8.30;99.90;;;;;;5056332;28;20446;-61
2023/12/09 09:00:08;;;;;;;12.13;2.40;;;8.30;99.90;;;;;;5065640;28;20875;-61
2023/12/09 09:02:34;;;;;;;11.40;4.50;;;8.40;99.90;;;;;;5076060;28;20456;-61
2023/12/09 09:05:03;;;;;;;6.30;2.67;;;8.40;99.90;;;;;;5076207;28;20495;-61
2023/12/09 09:07:29;;;;;;;7.30;2.47;;;8.50;99.90;;;;;;5075841;28;20448;-61
2023/12/09 09:09:56;;;;;;;5.97;3.00;;;8.60;99.90;;;;;;5075685;28;20847;-61
2023/12/09 09:12:23;;;;;;;8.23;3.60;;;8.60;99.90;;;;;;5076079;28;20455;-61
2023/12/09 09:14:51;;;;;;;6.70;2.53;;;8.70;99.90;;;;;;5076090;28;20448;-61
2023/12/09 09:17:17;;;;;;;10.60;3.17;;;8.70;99.90;;;;;;5075993;28;20444;-61
2023/12/09 09:19:44;;;;;;;3.93;2.50;;;8.80;99.90;;;;;;5075824;28;20480;-61
2023/12/09 09:22:11;;;;;;;5.73;2.73;;;8.90;99.90;;;;;;5075913;28;20437;-61
2023/12/09 09:24:37;;;;;;;7.73;2.80;;;8.90;99.90;;;;;;5075361;28;20939;-61
2023/12/09 09:27:05;;;;;;;7.63;2.87;;;9.00;99.90;;;;;;5075822;28;20437;-61
2023/12/09 09:29:31;;;;;;;6.40;2.87;;;9.10;99.90;;;;;;5075587;28;20490;-61
2023/12/09 09:31:59;;;;;;;5.37;2.77;;;9.10;99.90;;;;;;5076223;28;20445;-61
2023/12/09 09:34:26;;;;;;;6.07;2.20;;;9.20;99.90;;;;;;5075582;28;20506;-60
2023/12/09 09:36:53;;;;;;;7.73;2.73;;;9.20;99.90;;;;;;5075541;28;20449;-61
2023/12/09 09:39:19;;;;;;;16.00;2.50;;;9.20;99.90;;;;;;5075141;28;21011;-61
2023/12/09 09:42:00;;;;;;;7.00;2.63;;;9.30;99.90;;;;;;5075133;28;20459;-61
2023/12/09 09:44:28;;;;;;;5.77;2.27;;;9.30;99.90;;;;;;5075487;28;20456;-61
2023/12/09 09:46:57;;;;;;;6.10;2.40;;;9.30;99.90;;;;;;5075301;28;20479;-62
2023/12/09 09:49:30;;;;;;;5.77;2.20;;;9.40;99.90;;;;;;5075205;28;20451;-61
2023/12/09 09:51:58;;;;;;;6.70;2.37;;;9.40;99.90;;;;;;5075298;28;20436;-61
2023/12/09 09:54:28;;;;;;;5.60;1.90;;;9.40;99.90;;;;;;5075400;28;20449;-61
2023/12/09 09:56:58;;;;;;;11.30;2.80;;;9.40;99.90;;;;;;5075201;28;20471;-61
2023/12/09 09:59:25;;;;;;;7.50;2.70;;;9.40;99.90;;;;;;5074703;28;20510;-61
2023/12/09 10:01:52;;;;;;;12.03;2.57;;;9.40;99.90;;;;;;5075252;28;20452;-61
2023/12/09 10:04:18;;;;;;;3.67;1.83;;;9.50;99.90;;;;;;5074717;28;20453;-61
2023/12/09 10:06:48;;;;;;;9.43;2.47;;;9.50;99.90;;;;;;5075117;28;20440;-61
2023/12/09 10:09:17;;;;;;;8.70;2.50;;;9.50;99.90;;;;;;5074782;28;20957;-61
2023/12/09 10:11:44;;;;;;;9.20;2.03;;;9.50;99.90;;;;;;5075013;28;20437;-61
2023/12/09 10:14:11;;;;;;;4.20;2.20;;;9.60;99.90;;;;;;5074630;28;20452;-61
2023/12/09 10:16:38;;;;;;;5.00;2.13;;;9.70;99.90;;;;;;5074959;28;20451;-61
2023/12/09 10:19:08;;;;;;;4.10;2.03;;;9.80;99.90;;;;;;5074943;28;20485;-61
2023/12/09 10:21:35;;;;;;;8.07;2.50;;;10.00;99.90;;;;;;5074523;28;20974;-61
2023/12/09 10:24:05;;;;;;;7.77;2.03;;;10.10;99.90;;;;;;5074674;28;20799;-61
2023/12/09 10:26:31;;;;;;;10.90;3.20;;;10.30;99.90;;;;;;5074941;28;20443;-62
2023/12/09 10:28:58;;;;;;;6.93;2.30;;;10.60;99.90;;;;;;5075729;28;20437;-61
2023/12/09 10:31:27;;;;;;;7.60;2.57;;;10.80;99.90;;;;;;5075125;28;20876;-62
2023/12/09 10:33:54;;;;;;;8.80;2.53;;;11.00;99.90;;;;;;5076859;28;20444;-61
2023/12/09 10:36:21;;;;;;;9.30;2.70;;;11.10;99.90;;;;;;5075158;28;20795;-61
2023/12/09 10:38:48;;;;;;;9.13;2.83;;;11.10;99.70;;;;;;5076307;28;20451;-61
2023/12/09 10:41:17;;;;;;;15.97;3.53;;;11.20;99.10;;;;;;5075454;28;20467;-61
2023/12/09 10:43:43;;;;;;;9.70;2.90;;;11.20;99.50;;;;;;5074904;28;20494;-61
2023/12/09 10:46:10;;;;;;;6.20;2.77;;;11.10;99.40;;;;;;5074274;28;20480;-61
2023/12/09 10:48:37;;;;;;;10.10;2.60;;;11.00;99.50;;;;;;5075245;28;20448;-61
2023/12/09 10:51:04;;;;;;;9.60;2.90;;;11.00;99.60;;;;;;5074649;28;20882;-62
2023/12/09 10:53:31;;;;;;;8.73;2.90;;;10.80;99.90;;;;;;5074409;28;20452;-61
2023/12/09 10:55:58;;;;;;;6.30;2.70;;;10.70;99.90;;;;;;5074082;28;20441;-62
2023/12/09 10:58:27;;;;;;;8.93;2.30;;;10.60;99.90;;;;;;5074051;28;20437;-62
2023/12/09 11:00:57;;;;;;;11.10;3.40;;;10.50;99.90;;;;;;5074000;28;20516;-62
2023/12/09 11:03:25;;;;;;;10.87;2.53;;;10.40;99.90;;;;;;5073853;28;20562;-62
2023/12/09 11:05:54;;;;;;;10.40;3.33;;;10.30;99.90;;;;;;5074035;28;20444;-62
2023/12/09 11:08:23;;;;;;;7.97;3.20;;;10.30;99.90;;;;;;5073977;28;20484;-62
2023/12/09 11:10:50;;;;;;;13.67;3.90;;;10.20;99.90;;;;;;5073796;28;20556;-62
2023/12/09 11:13:19;;;;;;;6.93;3.37;;;10.10;99.90;;;;;;5073483;28;20515;-61
2023/12/09 11:15:48;;;;;;;6.57;2.30;;;10.10;99.90;;;;;;5073850;28;20479;-61
2023/12/09 11:18:17;;;;;;;12.27;3.10;;;10.10;99.90;;;;;;5073792;28;20447;-62
2023/12/09 11:20:45;;;;;;;10.87;2.53;;;10.10;99.90;;;;;;5073513;28;20515;-61
2023/12/09 11:23:13;;;;;;;7.47;2.00;;;10.10;99.90;;;;;;5073427;28;20955;-61
2023/12/09 11:25:42;;;;;;;10.67;2.50;;;10.00;99.90;;;;;;5073661;28;20444;-60
2023/12/09 11:28:10;;;;;;;10.83;2.90;;;10.00;99.90;;;;;;5073392;28;20480;-60
2023/12/09 11:30:40;;;;;;;10.13;2.87;;;10.00;99.90;;;;;;5073739;28;20461;-60
2023/12/09 11:33:09;;;;;;;10.10;2.90;;;9.90;99.90;;;;;;5073647;28;20460;-60
2023/12/09 11:35:36;;;;;;;4.30;2.40;;;9.90;99.90;;;;;;5073398;28;20452;-60
2023/12/09 11:38:05;;;;;;;13.60;2.87;;;9.80;99.90;;;;;;5073591;28;20440;-60
2023/12/09 11:40:33;;;;;;;8.23;2.70;;;9.80;99.90;;;;;;5073241;28;20489;-60
2023/12/09 11:43:03;;;;;;;5.30;2.53;;;9.80;99.90;;;;;;5073359;28;20445;-60
2023/12/09 11:45:30;;;;;;;6.93;2.27;;;9.80;99.90;;;;;;5073068;28;20456;-60
2023/12/09 11:47:58;;;;;;;10.33;2.63;;;9.80;99.90;;;;;;5073376;28;20452;-60
2023/12/09 11:50:28;;;;;;;5.83;1.63;;;9.90;99.90;;;;;;5073617;28;20460;-60
2023/12/09 11:52:55;;;;;;;12.70;3.33;;;9.90;99.90;;;;;;5073427;28;20546;-60
2023/12/09 11:55:22;;;;;;;4.70;2.17;;;9.90;99.90;;;;;;5072855;28;20824;-60
2023/12/09 11:57:49;;;;;;;6.70;2.00;;;10.00;99.90;;;;;;5073276;28;20451;-60
2023/12/09 12:00:16;;;;;;;5.43;1.70;;;10.10;99.90;;;;;;5063934;28;20916;-60
2023/12/09 12:02:43;;;;;;;10.67;2.67;;;10.10;99.90;;;;;;5057092;28;20457;-61
2023/12/09 12:05:11;;;;;;;4.20;1.87;;;10.10;99.90;;;;;;5057416;28;20480;-60
2023/12/09 12:07:40;;;;;;;6.13;1.90;;;10.10;99.90;;;;;;5057205;28;20499;-60
2023/12/09 12:10:08;;;;;;;12.40;2.50;;;10.00;99.90;;;;;;5057283;28;20461;-60
2023/12/09 12:12:35;;;;;;;7.27;2.27;;;10.10;99.90;;;;;;5057197;28;20445;-60
2023/12/09 12:15:02;;;;;;;9.87;2.00;;;10.00;99.90;;;;;;5056840;28;20939;-60
2023/12/09 12:17:37;;;;;;;4.20;1.40;;;10.00;99.90;;;;;;5056915;28;20468;-60
2023/12/09 12:20:06;;;;;;;6.27;2.17;;;10.00;99.90;;;;;;5056764;28;21073;-60
2023/12/09 12:22:33;;;;;;;6.00;2.20;;;9.90;99.90;;;;;;5056990;28;20450;-61
2023/12/09 12:25:01;;;;;;;10.17;1.80;;;9.90;99.90;;;;;;5057014;28;20444;-60
2023/12/09 12:27:28;;;;;;;9.80;2.20;;;9.90;99.90;;;;;;5056845;28;20448;-60
2023/12/09 12:29:56;;;;;;;5.20;1.50;;;9.90;99.90;;;;;;5056748;28;20463;-60
2023/12/09 12:32:23;;;;;;;6.90;2.10;;;9.90;99.90;;;;;;5057654;28;20454;-60
2023/12/09 12:34:50;;;;;;;6.47;2.53;;;9.90;99.90;;;;;;5056782;28;20449;-60
2023/12/09 12:37:18;;;;;;;11.60;5.13;;;9.90;99.90;;;;;;5056352;28;20484;-60
2023/12/09 12:39:45;;;;;;;9.97;5.07;;;9.80;99.90;;;;;;5056537;28;20488;-60
2023/12/09 12:42:14;;;;;;;10.60;6.43;;;9.80;99.90;;;;;;5056596;28;20447;-60
2023/12/09 12:44:42;;;;;;;5.83;2.73;;;9.80;99.90;;;;;;5056405;28;20445;-59
2023/12/09 12:47:09;;;;;;;5.30;1.90;;;9.70;99.90;;;;;;5056203;28;20935;-60
2023/12/09 12:49:37;;;;;;;4.83;1.57;;;9.80;99.90;;;;;;5056456;28;20469;-60
2023/12/09 12:52:04;;;;;;;4.47;1.40;;;9.70;99.90;;;;;;5056373;28;20441;-61
2023/12/09 12:54:31;;;;;;;6.67;1.60;;;9.70;99.90;;;;;;5056435;28;20480;-61